createdAt,value
2022-08-26T00:01:56.416Z,78.19
2022-08-26T00:05:04.117Z,78.97
2022-08-26T00:15:42.456Z,79.06
2022-08-26T00:21:06.311Z,79.22
2022-08-26T00:29:47.227Z,79.01
2022-08-26T00:33:51.749Z,78.87
2022-08-26T00:37:00.835Z,78.87
2022-08-26T00:47:51.268Z,78.51
2022-08-26T01:00:40.906Z,78.54
2022-08-26T01:09:01.889Z,78.82
2022-08-26T01:14:15.894Z,79.83
2022-08-26T01:19:35.523Z,79.53
2022-08-26T01:24:54.453Z,79.3
2022-08-26T01:30:13.448Z,79.62
2022-08-26T01:35:32.861Z,80
2022-08-26T01:40:52.334Z,80.92
2022-08-26T01:46:11.169Z,81.23
2022-08-26T01:51:30.081Z,81.43
2022-08-26T01:56:48.812Z,81.37
2022-08-26T02:02:20.443Z,81.51
2022-08-26T02:10:54.730Z,81.87
2022-08-26T02:19:17.190Z,82.33
2022-08-26T02:28:44.150Z,83
2022-08-26T02:34:03.758Z,83.67
2022-08-26T02:39:22.863Z,84.66
2022-08-26T02:44:52.682Z,85.3
2022-08-26T02:53:14.740Z,85.44
2022-08-26T02:55:20.103Z,85.63
2022-08-26T03:00:39.780Z,86.07
2022-08-26T03:09:14.017Z,86.29
2022-08-26T03:11:17.982Z,86.69
2022-08-26T03:16:36.874Z,86.82
2022-08-26T03:25:09.819Z,87.16
2022-08-26T03:29:26.381Z,87.7
2022-08-26T03:46:32.520Z,89.28
2022-08-26T03:50:49.007Z,89.33
2022-08-26T03:58:09.017Z,89.52
2022-08-26T04:04:30.703Z,89.96
2022-08-26T04:09:50.116Z,89.71
2022-08-26T04:15:08.882Z,89.73
2022-08-26T04:23:46.994Z,90.19
2022-08-26T04:27:58.465Z,90.86
2022-08-26T04:31:06.390Z,91.08
2022-08-26T04:41:57.638Z,90.82
2022-08-26T04:47:04.493Z,90.71
2022-08-26T04:55:51.553Z,91.21
2022-08-26T05:04:10.616Z,91.41
2022-08-26T05:08:22.672Z,91.07
2022-08-26T05:13:42.013Z,90.64
2022-08-26T05:19:11.591Z,90.19
2022-08-26T05:24:21.217Z,89.74
2022-08-26T05:32:55.384Z,89.2
2022-08-26T05:37:10.758Z,88.04
2022-08-26T05:41:27.305Z,86.6
2022-08-26T05:50:58.357Z,81.9
2022-08-26T05:59:31.410Z,80.65
2022-08-26T06:03:47.951Z,79.06
2022-08-26T06:06:56.137Z,78.01
2022-08-26T06:17:34.502Z,75.72
2022-08-26T06:26:07.556Z,74.12
2022-08-26T06:34:40.563Z,71.81
2022-08-26T06:44:21.695Z,70.23
2022-08-26T06:49:30.042Z,69.3
2022-08-26T06:54:49.093Z,66.67
2022-08-26T07:00:08.775Z,66.1
2022-08-26T07:05:28.218Z,65.81
2022-08-26T07:14:01.277Z,65.62
2022-08-26T07:22:34.346Z,64.44
2022-08-26T07:26:50.825Z,64.42
2022-08-26T07:35:23.923Z,64.87
2022-08-26T07:48:03.874Z,61.3
2022-08-26T07:56:35.583Z,60.12
2022-08-26T08:09:19.840Z,55.74
2022-08-26T08:14:39.111Z,53.57
2022-08-26T08:19:58.222Z,53.55
2022-08-26T08:25:17.462Z,51.55
2022-08-26T08:30:46.520Z,50.88
2022-08-26T08:39:09.553Z,51.51
2022-08-26T08:41:15.449Z,52.51
2022-08-26T08:46:34.260Z,53.87
2022-08-26T08:51:52.828Z,54.12
2022-08-26T08:57:11.746Z,54.1
2022-08-26T09:05:48.620Z,54.15
2022-08-26T09:10:01.332Z,53.19
2022-08-26T09:14:17.853Z,52.08
2022-08-26T09:23:49.437Z,49.4
2022-08-26T09:32:20.262Z,48.02
2022-08-26T09:36:39.428Z,46.03
2022-08-26T09:40:56.219Z,44.69
2022-08-26T09:45:02.615Z,43.04
2022-08-26T09:50:21.775Z,42.11
2022-08-26T09:55:40.870Z,43.61
2022-08-26T10:01:00.029Z,43.57
2022-08-26T10:09:33.042Z,45.47
2022-08-26T10:18:06.196Z,47.64
2022-08-26T10:22:16.707Z,49.98
2022-08-26T10:27:35.463Z,47.92
2022-08-26T10:36:20.500Z,46.86
2022-08-26T10:44:43.762Z,51.02
2022-08-26T10:54:10.103Z,49.75
2022-08-26T10:59:29.489Z,49.72
2022-08-26T11:04:48.729Z,49.6
2022-08-26T11:10:07.937Z,48.88
2022-08-26T11:18:40.989Z,49.98
2022-08-26T11:31:25.269Z,50.61
2022-08-26T11:36:44.099Z,51.08
2022-08-26T11:42:03.299Z,50.8
2022-08-26T11:50:36.349Z,49.92
2022-08-26T12:03:19.922Z,50.43
2022-08-26T12:08:39.369Z,49.69
2022-08-26T12:14:25.971Z,48.14
2022-08-26T12:19:45.282Z,48.07
2022-08-26T12:25:04.372Z,46.03
2022-08-26T12:30:23.780Z,44.59
2022-08-26T12:35:42.868Z,43.09
2022-08-26T12:44:15.897Z,41.67
2022-08-26T12:46:21.934Z,41.24
2022-08-26T12:57:01.013Z,40.61
2022-08-26T13:02:20.651Z,41.63
2022-08-26T13:07:40.019Z,44.05
2022-08-26T13:12:59.473Z,45.48
2022-08-26T13:18:18.359Z,46.44
2022-08-26T13:23:41.981Z,46.31
2022-08-26T13:29:01.250Z,47.41
2022-08-26T13:37:34.821Z,48.04
2022-08-26T13:50:14.518Z,47.13
2022-08-26T13:55:33.794Z,46.93
2022-08-26T14:00:52.993Z,46.85
2022-08-26T14:06:11.959Z,47.41
2022-08-26T14:14:45.010Z,47.46
2022-08-26T14:16:51.418Z,48.07
2022-08-26T14:22:09.921Z,48.59
2022-08-26T14:27:28.565Z,48.14
2022-08-26T14:32:47.691Z,49.42
2022-08-26T14:38:06.650Z,50.41
2022-08-26T14:43:26.082Z,51.92
2022-08-26T14:48:45.335Z,52.87
2022-08-26T14:54:04.170Z,53.42
2022-08-26T14:59:23.817Z,53.76
2022-08-26T15:04:42.999Z,53.41
2022-08-26T15:10:01.980Z,53.82
2022-08-26T15:15:20.877Z,54.52
2022-08-26T15:23:53.993Z,55.05
2022-08-26T15:25:58.552Z,54.63
2022-08-26T15:36:37.151Z,56.56
2022-08-26T15:41:56.311Z,56.95
2022-08-26T15:47:15.711Z,55.23
2022-08-26T15:52:34.454Z,54.01
2022-08-26T15:57:53.233Z,52.8
2022-08-26T16:03:12.239Z,50.26
2022-08-26T16:11:45.282Z,50.05
2022-08-26T16:19:09.864Z,50.92
2022-08-26T16:24:30.586Z,50.5
2022-08-26T16:29:47.921Z,50.46
2022-08-26T16:35:06.606Z,50.66
2022-08-26T16:40:25.333Z,50.79
2022-08-26T16:45:44.782Z,50.88
2022-08-26T16:51:03.513Z,51.27
2022-08-26T16:56:22.176Z,51.69
2022-08-26T17:01:41.469Z,51.63
2022-08-26T17:07:10.728Z,50
2022-08-26T17:12:19.819Z,49.79
2022-08-26T17:17:38.873Z,50.06
2022-08-26T17:22:57.852Z,50.83
2022-08-26T17:28:16.881Z,51.03
2022-08-26T17:36:49.939Z,51.62
2022-08-26T17:44:14.842Z,51.66
2022-08-26T17:49:34.207Z,52.16
2022-08-26T17:54:53.697Z,52.19
2022-08-26T18:00:12.482Z,52.54
2022-08-26T18:08:45.512Z,53.81
2022-08-26T18:13:02.094Z,54.1
2022-08-26T18:17:19.472Z,59.31
2022-08-26T18:26:46.832Z,63.16
2022-08-26T18:32:05.921Z,62.74
2022-08-26T18:37:37.185Z,61.7
2022-08-26T18:42:44.401Z,69.48
2022-08-26T18:48:13.080Z,84.91
2022-08-26T18:56:36.152Z,91.85
2022-08-26T18:58:40.391Z,93.15
2022-08-26T19:05:38.994Z,95
2022-08-26T19:14:39.657Z,96.14
2022-08-26T19:19:58.998Z,96.31
2022-08-26T19:25:16.823Z,96.85
2022-08-26T19:32:27.418Z,96.56
2022-08-26T19:36:31.947Z,95.58
2022-08-26T19:41:15.131Z,96.27
2022-08-26T19:49:48.206Z,96.66
2022-08-26T19:51:53.770Z,96.94
2022-08-26T20:02:31.853Z,94.97
2022-08-26T20:07:49.681Z,95.52
2022-08-26T20:13:08.967Z,96.58
2022-08-26T20:18:28.153Z,96.64
2022-08-26T20:25:02.395Z,96.71
2022-08-26T20:29:08.285Z,96.52
2022-08-26T20:37:41.337Z,96.52
2022-08-26T20:46:17.867Z,96.99
2022-08-26T20:50:24.047Z,97.01
2022-08-26T20:55:42.910Z,96.87
2022-08-26T21:01:06.887Z,96.55
2022-08-26T21:06:21.577Z,96.3
2022-08-26T21:11:40.262Z,96.13
2022-08-26T21:16:59.298Z,96.17
2022-08-26T21:22:18.963Z,96.31
2022-08-26T21:27:38.098Z,96.78
2022-08-26T21:32:57.344Z,97.11
2022-08-26T21:41:30.317Z,97.23
2022-08-26T21:48:54.275Z,97.19
2022-08-26T21:54:13.276Z,97.33
2022-08-26T21:59:31.730Z,97.31
2022-08-26T22:04:50.506Z,96.99
2022-08-26T22:10:10.688Z,96.82
2022-08-26T22:15:29.804Z,97.21
2022-08-26T22:20:49.177Z,97.32
2022-08-26T22:26:08.143Z,97.78
2022-08-26T22:31:28.034Z,98.02
2022-08-26T22:42:05.948Z,98.38
2022-08-26T22:47:24.847Z,98.56
2022-08-26T22:52:44.234Z,98.7
2022-08-26T22:58:04.131Z,98.76
2022-08-26T23:03:23.161Z,98.84
2022-08-26T23:08:41.477Z,98.97
2022-08-26T23:14:00.282Z,99.04
2022-08-26T23:19:19.594Z,99.12
2022-08-26T23:24:38.677Z,99.1
2022-08-26T23:29:57.724Z,98.96
2022-08-26T23:35:25.246Z,98.61
2022-08-26T23:40:36.197Z,98.27
2022-08-26T23:45:55.470Z,98.07
2022-08-26T23:51:14.516Z,97.94
2022-08-26T23:56:34.696Z,97.86
